Share

Jyvaskyla, Finland

Jyvaskyla (EFJY) Elev 476 ft | 62.40 °N, 25.68 °E | Change Station

Current weather conditions updated 18 minutes ago

Clear
Clear
50 °F
Feels Like 50 °F
N
4
Wind Variable Wind from NE
Sunrise 5:37 AM
Sunset 8:57 PM
Moon Waning Gibbous

Tomorrow is forecast to be Warmer than today.

Pressure 30.27 in
Visibility -9999.0 miles
Clouds
Dew Point 34 °F
Humidity 54%
Rainfall 0.00 in
Snow Depth Not available.
UV Not available.
Pollen Not available.
Air Quality Not available.
Flu Activity Not available.
METAR EFJY 201820Z AUTO 04003KT CAVOK 10/01 Q1025

More Conditions Fewer Conditions

Pressure 30.27 in
Visibility -9999.0 miles
Clouds
Dew Point 34 °F
Humidity 54%
Rainfall 0.00 in
Snow Depth Not available.
UV Not available.
Pollen Not available.
Air Quality Not available.
Flu Activity Not available.
METAR EFJY 201820Z AUTO 04003KT CAVOK 10/01 Q1025

More Conditions Fewer Conditions

10-Day Weather Forecast

Almanac

Astronomy

Apr. 20, 2014 Rise Set
Actual Time 5:37 AM EEST 8:57 PM EEST
Civil Twilight 4:43 AM EEST 9:51 PM EEST
Nautical Twilight 3:25 AM EEST 11:10 PM EEST
Astronomical Twilight 1:48 AM EEST 12:43 AM EEST
Moon 2:03 AM EEST 8:53 AM EEST
Length of Visible Light 17h 07m
Length of Day
15h 20m
Tomorrow will be 6m 4s longer.
Waning Gibbous, 67% of the Moon is Illuminated
Today
Waning Gibbous
Apr 22
Last Quarter
Apr 29
New
May 6
First Quarter
May 14
Full

Today's Extremes

Country Highs Country Lows

Community

  • Columbine
    Columbine
  • Easter Sunrise
    Easter Sunrise
  • Easter Eve - The Promise - Lake Palestine, TX
    Easter Eve - The Promise - Lake Palestine, TX
  • Happy Easter
    Happy Easter
  • EARLY FOGGY MORNING
    EARLY FOGGY MORNING

WunderPhotos

Upload Photos

1,703,302 photos uploaded!

WunderBlogs® & News

Nearby

Snow Depth

Not available.

Coastal Water Temperatures

Place Temperature
No Stations Reporting

Earthquake Activity

City Distance Mag. Time & Date
No recent earthquake activity has been reported nearby.
Minimum magnitude displayed is 2.5.

Nearby Weather Stations

Station Location Temp. Windchill Dew Point Humidity Wind Precip. Elev Updated Type
Palokka, Jyväskylä 39.0 °F 39 °F 33 °F 79% North  at  0.0 mph 0.00 in / hr 413 ft 9:38 PM EEST Rapid Fire
Laukaa, Vihtavuori 42.8 °F 43 °F 35 °F 73% North  at  0.0 mph 0.00 in / hr 285 ft 9:38 PM EEST Rapid Fire
Jyväskylä 51.0 °F - 37 °F 59% NNW  at  0.0 mph 0.00 in / hr 246 ft 9:30 PM EEST Normal
Kinkovuori, Jyväskylä 51.8 °F - 36 °F 56% NNE  at  2.0 mph 0.00 in / hr 246 ft 9:28 PM EEST Normal
Muurame 44.5 °F 44 °F 37 °F 74% ENE  at  0.0 mph 0.00 in / hr 397 ft 9:30 PM EEST Normal

Show More Stations Show Fewer Stations

What do you think?

We're not finished. Please let us know what you like, what you don't like, and what you are still missing.